createdAt,value
2018-08-03T00:00:07.958Z,10.03
2018-08-03T00:02:36.608Z,11.03
2018-08-03T00:05:05.395Z,9.90
2018-08-03T00:07:33.984Z,11.00
2018-08-03T00:10:02.685Z,10.63
2018-08-03T00:12:31.382Z,10.57
2018-08-03T00:15:00.422Z,10.00
2018-08-03T00:17:29.024Z,11.00
2018-08-03T00:19:58.189Z,10.67
2018-08-03T00:22:27.083Z,10.70
2018-08-03T00:24:56.599Z,10.07
2018-08-03T00:27:26.098Z,10.13
2018-08-03T00:29:55.007Z,9.93
2018-08-03T00:32:23.978Z,10.37
2018-08-03T00:34:52.505Z,9.90
2018-08-03T00:37:21.322Z,10.37
2018-08-03T00:39:49.974Z,10.97
2018-08-03T00:42:18.937Z,11.07
2018-08-03T00:44:47.482Z,10.47
2018-08-03T00:47:16.782Z,10.77
2018-08-03T00:49:45.415Z,10.23
2018-08-03T00:52:13.998Z,11.10
2018-08-03T00:54:43.043Z,10.37
2018-08-03T00:57:12.587Z,11.17
2018-08-03T00:59:41.713Z,10.60
2018-08-03T01:02:10.434Z,11.43
2018-08-03T01:04:38.955Z,11.07
2018-08-03T01:07:07.453Z,10.80
2018-08-03T01:09:35.978Z,10.60
2018-08-03T01:12:04.706Z,11.50
2018-08-03T01:14:33.305Z,10.60
2018-08-03T01:17:01.740Z,10.50
2018-08-03T01:19:30.746Z,10.50
2018-08-03T01:21:59.262Z,10.93
2018-08-03T01:24:27.797Z,11.27
2018-08-03T01:26:56.306Z,11.43
2018-08-03T01:29:25.281Z,11.40
2018-08-03T01:31:53.735Z,11.50
2018-08-03T01:34:22.164Z,11.47
2018-08-03T01:36:50.738Z,11.37
2018-08-03T01:39:19.621Z,12.30
2018-08-03T01:41:48.203Z,11.67
2018-08-03T01:44:17.259Z,11.60
2018-08-03T01:46:46.466Z,10.60
2018-08-03T01:49:15.200Z,12.43
2018-08-03T01:51:43.761Z,10.60
2018-08-03T01:54:12.249Z,11.43
2018-08-03T01:56:40.942Z,11.77
2018-08-03T01:59:09.502Z,11.47
2018-08-03T02:01:38.729Z,11.33
2018-08-03T02:04:08.034Z,11.40
2018-08-03T02:06:37.172Z,12.03
2018-08-03T02:09:07.843Z,11.27
2018-08-03T02:11:36.553Z,11.87
2018-08-03T02:14:05.376Z,11.40
2018-08-03T02:16:34.018Z,11.33
2018-08-03T02:19:03.422Z,11.03
2018-08-03T02:21:32.014Z,11.53
2018-08-03T02:24:00.692Z,10.63
2018-08-03T02:26:29.938Z,11.40
2018-08-03T02:28:58.883Z,10.97
2018-08-03T02:31:27.475Z,11.03
2018-08-03T02:33:56.013Z,11.53
2018-08-03T02:36:24.713Z,10.67
2018-08-03T02:38:53.190Z,11.20
2018-08-03T02:41:22.379Z,11.20
2018-08-03T02:43:51.040Z,11.17
2018-08-03T02:46:19.566Z,11.50
2018-08-03T02:48:48.032Z,12.23
2018-08-03T02:51:16.618Z,11.80
2018-08-03T02:53:45.227Z,12.33
2018-08-03T02:56:13.688Z,11.70
2018-08-03T02:58:42.195Z,11.33
2018-08-03T03:01:11.270Z,12.63
2018-08-03T03:03:39.780Z,12.60
2018-08-03T03:06:08.823Z,11.90
2018-08-03T03:08:37.274Z,12.10
2018-08-03T03:11:05.982Z,11.77
2018-08-03T03:13:34.435Z,11.60
2018-08-03T03:16:03.232Z,12.07
2018-08-03T03:18:31.894Z,12.57
2018-08-03T03:21:00.603Z,11.73
2018-08-03T03:23:29.099Z,11.37
2018-08-03T03:25:57.612Z,12.10
2018-08-03T03:28:26.554Z,12.57
2018-08-03T03:30:55.248Z,12.53
2018-08-03T03:33:23.912Z,12.53
2018-08-03T03:35:53.240Z,11.60
2018-08-03T03:38:21.818Z,11.97
2018-08-03T03:40:50.728Z,12.93
2018-08-03T03:43:19.283Z,12.50
2018-08-03T03:45:47.778Z,11.60
2018-08-03T03:48:16.449Z,11.57
2018-08-03T03:50:45.960Z,12.10
2018-08-03T03:53:14.455Z,10.53
2018-08-03T03:55:43.235Z,13.00
2018-08-03T03:58:11.812Z,12.83
2018-08-03T04:00:41.100Z,12.27
2018-08-03T04:03:09.750Z,12.17
2018-08-03T04:05:38.358Z,12.70
2018-08-03T04:08:07.159Z,12.73
2018-08-03T04:10:35.834Z,12.60
2018-08-03T04:13:04.371Z,11.93
2018-08-03T04:15:32.972Z,12.40
2018-08-03T04:18:01.498Z,12.10
2018-08-03T04:20:30.052Z,12.37
2018-08-03T04:22:58.758Z,12.97
2018-08-03T04:25:27.357Z,12.83
2018-08-03T04:27:55.860Z,14.13
2018-08-03T04:30:24.672Z,14.27
2018-08-03T04:32:53.458Z,15.27
2018-08-03T04:35:22.228Z,14.87
2018-08-03T04:37:51.507Z,13.40
2018-08-03T04:40:20.037Z,13.17
2018-08-03T04:42:48.943Z,13.53
2018-08-03T04:45:18.415Z,13.07
2018-08-03T04:47:47.305Z,12.37
2018-08-03T04:50:15.803Z,12.83
2018-08-03T04:52:44.504Z,12.73
2018-08-03T04:55:13.902Z,12.70
2018-08-03T04:57:42.841Z,12.77
2018-08-03T05:00:11.554Z,12.30
2018-08-03T05:02:40.402Z,12.27
2018-08-03T05:05:09.208Z,13.00
2018-08-03T05:07:37.673Z,11.87
2018-08-03T05:10:06.515Z,12.03
2018-08-03T05:12:35.147Z,11.97
2018-08-03T05:15:03.890Z,12.37
2018-08-03T05:17:32.491Z,12.00
2018-08-03T05:20:01.275Z,13.90
2018-08-03T05:22:29.986Z,13.20
2018-08-03T05:24:58.910Z,12.17
2018-08-03T05:27:28.079Z,13.80
2018-08-03T05:29:56.626Z,12.77
2018-08-03T05:32:25.381Z,13.70
2018-08-03T05:34:54.494Z,14.43
2018-08-03T05:37:23.091Z,13.30
2018-08-03T05:39:51.885Z,13.93
2018-08-03T05:42:20.492Z,13.27
2018-08-03T05:44:49.003Z,12.70
2018-08-03T05:47:17.566Z,18.43
2018-08-03T05:49:46.147Z,13.23
2018-08-03T05:52:14.886Z,12.50
2018-08-03T05:54:43.490Z,13.23
2018-08-03T05:57:12.571Z,12.97
2018-08-03T05:59:41.175Z,11.83
2018-08-03T06:02:10.068Z,11.67
2018-08-03T06:04:38.527Z,12.27
2018-08-03T06:07:07.271Z,11.60
2018-08-03T06:09:35.758Z,11.27
2018-08-03T06:12:04.380Z,11.30
2018-08-03T06:14:33.234Z,12.17
2018-08-03T06:17:01.848Z,11.93
2018-08-03T06:19:30.714Z,11.50
2018-08-03T06:21:59.387Z,11.83
2018-08-03T06:24:28.714Z,11.60
2018-08-03T06:26:57.795Z,11.83
2018-08-03T06:29:27.069Z,11.07
2018-08-03T06:31:56.286Z,11.27
2018-08-03T06:34:25.541Z,10.37
2018-08-03T06:36:54.155Z,10.80
2018-08-03T06:39:23.460Z,11.00
2018-08-03T06:41:52.235Z,11.17
2018-08-03T06:44:21.188Z,11.83
2018-08-03T06:46:49.888Z,11.10
2018-08-03T06:49:18.464Z,11.80
2018-08-03T06:51:47.171Z,12.07
2018-08-03T06:54:15.919Z,11.03
2018-08-03T06:56:44.432Z,11.80
2018-08-03T06:59:13.277Z,10.23
2018-08-03T07:01:41.851Z,10.70
2018-08-03T07:04:11.140Z,9.50
2018-08-03T07:06:40.466Z,8.93
2018-08-03T07:09:10.878Z,10.53
2018-08-03T07:11:39.428Z,9.93
2018-08-03T07:14:07.995Z,10.57
2018-08-03T07:16:37.502Z,10.17
2018-08-03T07:19:06.067Z,9.50
2018-08-03T07:21:34.862Z,10.23
2018-08-03T07:24:04.618Z,11.07
2018-08-03T07:26:33.248Z,10.63
2018-08-03T07:29:01.733Z,10.80
2018-08-03T07:31:30.358Z,10.43
2018-08-03T07:33:58.954Z,10.60
2018-08-03T07:36:27.642Z,10.03
2018-08-03T07:38:56.377Z,10.67
2018-08-03T07:41:25.033Z,10.90
2018-08-03T07:43:53.665Z,10.13
2018-08-03T07:46:23.483Z,10.23
2018-08-03T07:48:52.263Z,10.10
2018-08-03T07:51:20.805Z,9.67
2018-08-03T07:53:49.305Z,10.17
2018-08-03T07:56:18.203Z,9.90
2018-08-03T07:58:46.982Z,9.47
2018-08-03T08:01:15.601Z,9.67
2018-08-03T08:03:44.283Z,10.30
2018-08-03T08:06:13.010Z,9.57
2018-08-03T08:08:41.497Z,9.57
2018-08-03T08:11:10.046Z,9.87
2018-08-03T08:13:38.613Z,10.13
2018-08-03T08:16:07.505Z,9.63
2018-08-03T08:18:36.071Z,9.67
2018-08-03T08:21:04.622Z,9.30
2018-08-03T08:23:33.667Z,9.30
2018-08-03T08:26:02.141Z,9.67
2018-08-03T08:28:30.695Z,9.23
2018-08-03T08:30:59.323Z,8.93
2018-08-03T08:33:27.816Z,9.00
2018-08-03T08:35:56.487Z,8.23
2018-08-03T08:38:25.161Z,8.20
2018-08-03T08:40:53.703Z,9.27
2018-08-03T08:43:22.442Z,9.23
2018-08-03T08:45:51.855Z,9.33
2018-08-03T08:48:21.011Z,8.83
2018-08-03T08:50:49.509Z,8.80
2018-08-03T08:53:18.097Z,8.80
2018-08-03T08:55:46.596Z,8.80
2018-08-03T08:58:15.243Z,8.40
2018-08-03T09:00:44.139Z,9.17
2018-08-03T09:03:13.070Z,9.07
2018-08-03T09:05:41.669Z,8.60
2018-08-03T09:08:10.201Z,8.40
2018-08-03T09:10:39.115Z,9.00
2018-08-03T09:13:08.326Z,8.77
2018-08-03T09:15:37.204Z,8.80
2018-08-03T09:18:05.806Z,8.63
2018-08-03T09:20:34.319Z,8.70
2018-08-03T09:23:02.979Z,8.77
2018-08-03T09:25:31.558Z,8.70
2018-08-03T09:28:00.128Z,8.03
2018-08-03T09:30:28.664Z,8.50
2018-08-03T09:32:57.283Z,8.33
2018-08-03T09:35:26.517Z,7.83
2018-08-03T09:37:55.750Z,8.40
2018-08-03T09:40:24.264Z,8.70
2018-08-03T09:42:53.152Z,8.97
2018-08-03T09:45:22.384Z,8.33
2018-08-03T09:47:51.171Z,8.10
2018-08-03T09:50:19.775Z,8.60
2018-08-03T09:52:49.148Z,8.20
2018-08-03T09:55:17.803Z,8.47
2018-08-03T09:57:46.420Z,8.60
2018-08-03T10:00:17.001Z,7.67
2018-08-03T10:02:47.059Z,8.03
2018-08-03T10:05:15.692Z,7.90
2018-08-03T10:07:44.172Z,8.70
2018-08-03T10:10:13.821Z,7.90
2018-08-03T10:12:42.476Z,7.47
2018-08-03T10:15:11.912Z,7.70
2018-08-03T10:17:41.256Z,6.90
2018-08-03T10:20:09.742Z,7.20
2018-08-03T10:22:38.406Z,7.70
2018-08-03T10:25:06.952Z,7.33
2018-08-03T10:27:35.760Z,7.73
2018-08-03T10:30:05.073Z,7.17
2018-08-03T10:32:33.812Z,7.07
2018-08-03T10:35:02.792Z,7.00
2018-08-03T10:37:31.680Z,7.20
2018-08-03T10:40:00.347Z,7.47
2018-08-03T10:42:28.978Z,7.20
2018-08-03T10:44:57.524Z,7.40
2018-08-03T10:47:26.160Z,6.90
2018-08-03T10:49:55.033Z,6.90
2018-08-03T10:52:23.613Z,7.47
2018-08-03T10:54:52.377Z,6.60
2018-08-03T10:57:21.039Z,7.70
2018-08-03T10:59:49.571Z,7.13
2018-08-03T11:02:18.454Z,7.40
2018-08-03T11:04:47.087Z,7.50
2018-08-03T11:07:15.600Z,7.53
2018-08-03T11:09:44.114Z,7.70
2018-08-03T11:12:13.493Z,7.17
2018-08-03T11:14:42.815Z,7.07
2018-08-03T11:17:11.539Z,6.93
2018-08-03T11:19:40.103Z,7.10
2018-08-03T11:22:08.791Z,7.33
2018-08-03T11:24:38.611Z,7.80
2018-08-03T11:27:07.209Z,7.87
2018-08-03T11:29:36.068Z,8.00
2018-08-03T11:32:04.493Z,7.30
2018-08-03T11:34:33.322Z,6.83
2018-08-03T11:37:01.866Z,6.93
2018-08-03T11:39:30.638Z,7.17
2018-08-03T11:41:59.249Z,6.83
2018-08-03T11:44:28.563Z,7.43
2018-08-03T11:46:58.048Z,7.17
2018-08-03T11:49:26.584Z,7.03
2018-08-03T11:51:55.167Z,6.70
2018-08-03T11:54:24.467Z,7.33
2018-08-03T11:56:53.416Z,7.50
2018-08-03T11:59:22.734Z,7.27
2018-08-03T12:01:51.544Z,7.70
2018-08-03T12:04:20.272Z,7.13
2018-08-03T12:06:48.859Z,7.23
2018-08-03T12:09:17.431Z,6.80
2018-08-03T12:11:46.004Z,7.60
2018-08-03T12:14:14.524Z,7.90
2018-08-03T12:16:43.292Z,7.67
2018-08-03T12:19:11.776Z,7.20
2018-08-03T12:21:40.459Z,7.30
2018-08-03T12:24:09.467Z,6.87
2018-08-03T12:26:38.026Z,6.93
2018-08-03T12:29:06.630Z,7.00
2018-08-03T12:31:35.536Z,6.83
2018-08-03T12:34:04.147Z,7.47
2018-08-03T12:36:32.622Z,7.43
2018-08-03T12:39:01.659Z,7.33
2018-08-03T12:41:30.400Z,7.13
2018-08-03T12:43:59.173Z,6.57
2018-08-03T12:46:27.790Z,7.20
2018-08-03T12:48:56.395Z,7.10
2018-08-03T12:51:25.116Z,7.40
2018-08-03T12:53:53.705Z,7.50
2018-08-03T12:56:22.531Z,7.33
2018-08-03T12:58:51.493Z,7.60
2018-08-03T13:01:20.249Z,6.73
2018-08-03T13:03:48.835Z,7.43
2018-08-03T13:06:17.598Z,8.00
2018-08-03T13:08:46.353Z,7.53
2018-08-03T13:11:14.940Z,7.30
2018-08-03T13:13:43.826Z,6.87
2018-08-03T13:16:12.374Z,7.50
2018-08-03T13:18:41.190Z,7.07
2018-08-03T13:21:21.283Z,6.70
2018-08-03T13:23:56.458Z,7.37
2018-08-03T13:26:25.703Z,7.17
2018-08-03T13:28:55.023Z,7.40
2018-08-03T13:31:25.011Z,7.30
2018-08-03T13:33:53.704Z,6.93
2018-08-03T13:36:23.671Z,7.03
2018-08-03T13:38:52.274Z,7.47
2018-08-03T13:41:21.887Z,7.60
2018-08-03T13:43:51.432Z,7.53
2018-08-03T13:46:20.135Z,7.27
2018-08-03T13:48:49.378Z,7.53
2018-08-03T13:51:18.694Z,7.50
2018-08-03T13:53:47.982Z,7.07
2018-08-03T13:56:17.603Z,7.50
2018-08-03T13:58:47.514Z,6.57
2018-08-03T14:01:27.470Z,7.33
2018-08-03T14:03:55.987Z,6.43
2018-08-03T14:06:24.498Z,6.67
2018-08-03T14:08:53.130Z,7.03
2018-08-03T14:11:21.765Z,6.80
2018-08-03T14:13:50.593Z,7.00
2018-08-03T14:16:19.339Z,6.73
2018-08-03T14:18:48.124Z,7.00
2018-08-03T14:21:17.525Z,6.67
2018-08-03T14:23:46.281Z,6.77
2018-08-03T14:26:15.003Z,6.53
2018-08-03T14:28:43.552Z,6.73
2018-08-03T14:31:12.040Z,7.30
2018-08-03T14:33:41.363Z,6.17
2018-08-03T14:36:09.917Z,6.30
2018-08-03T14:38:38.502Z,6.23
2018-08-03T14:41:07.127Z,6.12
2018-08-03T14:43:35.629Z,6.50
2018-08-03T14:46:04.158Z,6.35
2018-08-03T14:48:33.303Z,5.70
2018-08-03T14:51:01.524Z,5.53
2018-08-03T14:53:37.390Z,5.58
2018-08-03T14:56:05.920Z,5.55
2018-08-03T14:58:34.536Z,5.60
2018-08-03T15:01:03.128Z,5.15
2018-08-03T15:03:31.605Z,5.78
2018-08-03T15:06:00.246Z,6.08
2018-08-03T15:08:28.792Z,6.78
2018-08-03T15:10:57.358Z,6.12
2018-08-03T15:13:25.899Z,6.63
2018-08-03T15:15:54.955Z,6.40
2018-08-03T15:18:23.508Z,5.97
2018-08-03T15:20:52.051Z,6.40
2018-08-03T15:23:21.188Z,6.67
2018-08-03T15:25:49.655Z,6.70
2018-08-03T15:28:18.286Z,6.53
2018-08-03T15:30:46.772Z,6.28
2018-08-03T15:33:16.060Z,6.50
2018-08-03T15:35:45.285Z,5.78
2018-08-03T15:38:14.375Z,5.87
2018-08-03T15:40:42.918Z,5.62
2018-08-03T15:43:11.479Z,4.92
2018-08-03T15:45:39.991Z,5.40
2018-08-03T15:48:08.593Z,5.05
2018-08-03T15:50:38.360Z,5.10
2018-08-03T15:53:07.010Z,5.42
2018-08-03T15:55:35.567Z,5.42
2018-08-03T15:58:04.216Z,5.20
2018-08-03T16:00:33.400Z,4.80
2018-08-03T16:03:01.999Z,5.05
2018-08-03T16:05:30.725Z,5.17
2018-08-03T16:07:59.418Z,5.53
2018-08-03T16:10:27.936Z,5.40
2018-08-03T16:12:56.615Z,5.58
2018-08-03T16:15:25.209Z,5.67
2018-08-03T16:17:53.746Z,5.60
2018-08-03T16:20:22.284Z,5.47
2018-08-03T16:22:50.870Z,5.85
2018-08-03T16:25:19.374Z,5.35
2018-08-03T16:27:47.884Z,6.42
2018-08-03T16:30:16.469Z,5.37
2018-08-03T16:32:45.253Z,5.47
2018-08-03T16:35:13.722Z,5.83
2018-08-03T16:37:42.309Z,5.78
2018-08-03T16:40:11.263Z,5.55
2018-08-03T16:42:40.663Z,6.10
2018-08-03T16:45:09.521Z,5.47
2018-08-03T16:47:38.809Z,5.77
2018-08-03T16:50:07.916Z,6.27
2018-08-03T16:52:36.488Z,5.83
2018-08-03T16:55:05.703Z,6.10
2018-08-03T16:57:34.274Z,5.30
2018-08-03T17:00:03.063Z,5.95
2018-08-03T17:02:31.944Z,5.58
2018-08-03T17:05:01.844Z,5.33
2018-08-03T17:07:30.968Z,5.90
2018-08-03T17:10:00.959Z,5.58
2018-08-03T17:12:30.246Z,5.15
2018-08-03T17:14:59.189Z,4.72
2018-08-03T17:17:27.847Z,5.10
2018-08-03T17:19:56.479Z,5.28
2018-08-03T17:22:25.101Z,5.12
2018-08-03T17:24:53.999Z,5.30
2018-08-03T17:27:22.555Z,4.80
2018-08-03T17:29:51.490Z,5.20
2018-08-03T17:32:20.183Z,5.83
2018-08-03T17:34:48.984Z,5.37
2018-08-03T17:37:17.607Z,5.17
2018-08-03T17:39:46.347Z,5.70
2018-08-03T17:42:16.115Z,6.00
2018-08-03T17:44:45.536Z,5.67
2018-08-03T17:47:14.388Z,6.00
2018-08-03T17:49:43.398Z,6.03
2018-08-03T17:52:11.880Z,5.70
2018-08-03T17:54:40.418Z,6.00
2018-08-03T17:57:08.619Z,5.80
2018-08-03T17:59:37.203Z,6.30
2018-08-03T18:02:05.723Z,5.83
2018-08-03T18:04:34.223Z,5.97
2018-08-03T18:07:02.888Z,6.50
2018-08-03T18:09:31.612Z,6.70
2018-08-03T18:12:00.850Z,6.73
2018-08-03T18:14:29.434Z,6.63
2018-08-03T18:16:58.160Z,6.23
2018-08-03T18:19:26.751Z,7.40
2018-08-03T18:21:55.417Z,7.13
2018-08-03T18:24:24.123Z,6.73
2018-08-03T18:26:52.625Z,6.80
2018-08-03T18:29:21.412Z,6.63
2018-08-03T18:31:50.037Z,6.80
2018-08-03T18:34:18.727Z,7.10
2018-08-03T18:36:47.342Z,7.40
2018-08-03T18:39:16.116Z,6.60
2018-08-03T18:41:44.788Z,6.70
2018-08-03T18:44:13.306Z,6.80
2018-08-03T18:46:41.896Z,6.73
2018-08-03T18:49:10.476Z,6.47
2018-08-03T18:51:39.258Z,7.40
2018-08-03T18:54:07.888Z,6.67
2018-08-03T18:56:37.253Z,6.90
2018-08-03T18:59:05.840Z,7.23
2018-08-03T19:01:34.735Z,6.87
2018-08-03T19:04:03.363Z,7.90
2018-08-03T19:06:31.984Z,7.80
2018-08-03T19:09:00.568Z,8.00
2018-08-03T19:11:29.106Z,7.60
2018-08-03T19:13:57.707Z,7.50
2018-08-03T19:16:25.923Z,7.90
2018-08-03T19:18:54.807Z,8.30
2018-08-03T19:21:24.407Z,7.73
2018-08-03T19:23:53.275Z,7.43
2018-08-03T19:26:22.045Z,8.00
2018-08-03T19:28:51.285Z,8.77
2018-08-03T19:31:19.975Z,8.13
2018-08-03T19:33:48.572Z,8.30
2018-08-03T19:36:17.732Z,8.43
2018-08-03T19:38:46.341Z,9.00
2018-08-03T19:41:15.334Z,7.97
2018-08-03T19:43:44.601Z,8.07
2018-08-03T19:46:13.256Z,8.73
2018-08-03T19:48:41.859Z,7.90
2018-08-03T19:51:11.202Z,8.17
2018-08-03T19:53:39.846Z,8.50
2018-08-03T19:56:08.466Z,8.50
2018-08-03T19:58:37.027Z,8.30
2018-08-03T20:01:05.752Z,8.67
2018-08-03T20:03:34.361Z,9.43
2018-08-03T20:06:03.189Z,8.63
2018-08-03T20:08:31.749Z,9.23
2018-08-03T20:11:00.264Z,8.30
2018-08-03T20:13:28.975Z,8.93
2018-08-03T20:15:57.442Z,9.10
2018-08-03T20:18:26.013Z,9.30
2018-08-03T20:20:55.039Z,9.33
2018-08-03T20:23:24.428Z,9.40
2018-08-03T20:25:53.401Z,9.20
2018-08-03T20:28:21.980Z,9.13
2018-08-03T20:30:50.515Z,8.70
2018-08-03T20:33:19.123Z,9.00
2018-08-03T20:35:47.750Z,9.43
2018-08-03T20:38:16.511Z,8.90
2018-08-03T20:40:46.198Z,9.77
2018-08-03T20:43:14.716Z,9.63
2018-08-03T20:45:43.253Z,9.57
2018-08-03T20:48:12.072Z,9.40
2018-08-03T20:50:40.936Z,9.03
2018-08-03T20:53:09.860Z,9.83
2018-08-03T20:55:38.626Z,9.17
2018-08-03T20:58:07.425Z,9.13
2018-08-03T21:00:35.890Z,9.43
2018-08-03T21:03:04.476Z,9.57
2018-08-03T21:05:33.231Z,9.43
2018-08-03T21:08:01.835Z,9.13
2018-08-03T21:10:30.545Z,9.17
2018-08-03T21:12:59.092Z,8.80
2018-08-03T21:15:27.667Z,9.40
2018-08-03T21:17:56.265Z,8.97
2018-08-03T21:20:24.782Z,9.37
2018-08-03T21:22:53.494Z,9.80
2018-08-03T21:25:22.106Z,9.37
2018-08-03T21:27:51.001Z,9.27
2018-08-03T21:30:19.753Z,9.90
2018-08-03T21:32:48.917Z,9.07
2018-08-03T21:35:17.632Z,9.17
2018-08-03T21:37:45.882Z,9.57
2018-08-03T21:40:14.474Z,9.23
2018-08-03T21:42:43.831Z,8.67
2018-08-03T21:45:12.537Z,9.23
2018-08-03T21:47:41.202Z,8.87
2018-08-03T21:50:09.976Z,9.43
2018-08-03T21:52:38.608Z,9.40
2018-08-03T21:55:07.190Z,9.57
2018-08-03T21:57:36.029Z,9.20
2018-08-03T22:00:06.482Z,9.53
2018-08-03T22:02:35.195Z,9.03
2018-08-03T22:05:03.865Z,9.43
2018-08-03T22:07:32.675Z,9.80
2018-08-03T22:10:01.019Z,9.63
2018-08-03T22:12:29.744Z,9.17
2018-08-03T22:14:58.690Z,8.73
2018-08-03T22:17:27.470Z,9.43
2018-08-03T22:19:56.387Z,9.70
2018-08-03T22:22:25.372Z,9.53
2018-08-03T22:24:53.981Z,9.60
2018-08-03T22:27:22.434Z,9.40
2018-08-03T22:29:51.146Z,9.33
2018-08-03T22:32:19.749Z,9.37
2018-08-03T22:34:48.642Z,9.07
2018-08-03T22:37:17.346Z,9.50
2018-08-03T22:39:46.296Z,9.80
2018-08-03T22:42:15.039Z,9.30
2018-08-03T22:44:43.518Z,9.50
2018-08-03T22:47:12.815Z,9.30
2018-08-03T22:49:41.142Z,9.50
2018-08-03T22:52:10.223Z,9.60
2018-08-03T22:54:39.369Z,9.43
2018-08-03T22:57:08.767Z,9.00
2018-08-03T22:59:37.450Z,9.23
2018-08-03T23:02:08.139Z,9.30
2018-08-03T23:04:37.903Z,10.07
2018-08-03T23:07:07.662Z,9.57
2018-08-03T23:09:36.607Z,9.20
2018-08-03T23:12:05.186Z,9.47
2018-08-03T23:14:33.782Z,10.67
2018-08-03T23:17:02.568Z,9.27
2018-08-03T23:19:31.371Z,9.33
2018-08-03T23:21:59.860Z,10.20
2018-08-03T23:24:28.472Z,10.57
2018-08-03T23:26:57.118Z,10.50
2018-08-03T23:29:25.795Z,10.60
2018-08-03T23:31:54.544Z,10.20
2018-08-03T23:34:23.251Z,10.00
2018-08-03T23:36:52.293Z,10.13
2018-08-03T23:39:21.751Z,9.90
2018-08-03T23:41:50.417Z,9.30
2018-08-03T23:44:19.126Z,10.73
2018-08-03T23:46:47.700Z,9.83
2018-08-03T23:49:16.504Z,10.13
2018-08-03T23:51:45.055Z,9.93
2018-08-03T23:54:13.537Z,9.93
2018-08-03T23:56:42.183Z,9.57
2018-08-03T23:59:11.646Z,10.07
